Terminal Aerodrome Forecast
Issued by NWS

Home | Current Version | Previous Version | Text Only | Print | Product List | Glossary On
Versions: 1 2 3 4 5 6 7 8 9 10 11 12 13 14 15 16 17 18 19
000
FTUS43 KICT 261120
TAFHUT
TAF
KHUT 261120Z 2612/2712 35010KT P6SM OVC004
      TEMPO 2613/2615 SCT004 OVC008
     FM261500 36009KT P6SM OVC010
     FM261700 01010KT P6SM OVC020
     FM262300 02009KT P6SM OVC040=

USA.gov is the U.S. government's official web portal to all federal, state and local government web resources and services.